Salt Lake City, UT

3:40 PM MST en Noviembre 20, 2014 (GMT -0700)
Salt Lake Avenues | Change Station
CLOSE
Current Station
Estación meteorológica personal
Location: Salt Lake City, UT
Altura: 5233 ft
Estaciones meteorológicas cercanas

Alt 5233 ft 40.79 °N, 111.86 °W | Updated 23 seconds ago

Muy nublado
Muy nublado
55.1 ° F
Sensación térmica 55.1 ° F
N
4.7
Viento Variable Viento desde Este
Gusts 6.0 mph

Hoy
Alta -- | Baja -- ° F
--% Posibilidad de precipitaciones
Ayer
Alta -- | Baja -- ° F
Precip. -- pul
7:20 AM 5:05 PM
Creciente menguante, 3% visible
Presión 30.05 pul
Visibilidad 10.0 Millas
Nubes Nubes dispersas 10000 ft
Nubes dispersas 12000 ft
Nubes dispersas 20000 ft
Punto de rocío 26 ° F
Humedad 33%
Precipitaciones 0.00 pul
Espesor de la nieve No disponible.
UV 1 de una escala de 12
Polen .10 de una escala de 12
Calidad del aire No disponible.
Flu Activity No disponible.
METAR KSLC 202153Z VRB03KT 10SM SCT100 SCT120 SCT200 10/M04 A3006 RMK AO2 SLP175 ACSL DSNT NE AND SE AND SW T01001044

More Conditions Fewer Conditions

Presión 30.05 pul
Visibilidad 10.0 Millas
Nubes Nubes dispersas 10000 ft
Nubes dispersas 12000 ft
Nubes dispersas 20000 ft
Punto de rocío 26 ° F
Humedad 33%
Precipitaciones 0.00 pul
Espesor de la nieve No disponible.
UV 1 de una escala de 12
Polen .10 de una escala de 12
Calidad del aire No disponible.
Flu Activity No disponible.
METAR KSLC 202153Z VRB03KT 10SM SCT100 SCT120 SCT200 10/M04 A3006 RMK AO2 SLP175 ACSL DSNT NE AND SE AND SW T01001044

More Conditions Fewer Conditions

10-Day Weather Forecast

Almanac

Astronomía

Nov. 20, 2014 Salida Puesta
Hora real
Crepúsculo civil
Crepúsculo náutico
Crepúsculo astronómico
Luna
Horas de luz
Horas de luz
Tomorrow will be .
, % of the Moon is Illuminated

Extremos de hoy

Máximos del estado Bajos del estado

Community

WunderPhotos

Upload Photos

1,772,539 ¡fotos cargadas!

WunderBlogs® & News

Nearby

Calidad del aire

  Calidad del aire Índice AQ Contaminante
Not available.

Grosos de nieve

Estación Profundido Altura

Actividad de terremotos

Ciudad Distance Mag. Tiempo y dato
Magnitud mínima muestra es 2,5.

Temperaturas de aguas costeras

Lugar Temperatura

Estaciones meteorológicas cercanas